Time;durP1;ratioP1;P1;durP2;ratioP2;P2;SDS_P1;SDS_P2;PMS_P1;PMS_P2;Temp;Humidity;BMP_temperature;BMP_pressure;BME280_temperature;BME280_humidity;BME280_pressure;Samples;Min_cycle;Max_cycle;Signal;HPM_P1;HPM_P2
2021/08/06 00:00:56;;;;;;;0.40;0.30;;;15.60;99.90;;;;;;4995240;28;20457;-82
2021/08/06 00:03:23;;;;;;;0.60;0.30;;;15.50;99.90;;;;;;4995614;28;20445;-82
2021/08/06 00:05:54;;;;;;;0.30;0.30;;;15.50;99.90;;;;;;4995439;28;20440;-81
2021/08/06 00:08:21;;;;;;;0.30;0.30;;;15.50;99.90;;;;;;4995242;28;20481;-82
2021/08/06 00:10:49;;;;;;;0.30;0.30;;;15.50;99.90;;;;;;4995018;28;20983;-82
2021/08/06 00:13:15;;;;;;;0.60;0.40;;;15.50;99.90;;;;;;4995404;28;20524;-82
2021/08/06 00:15:42;;;;;;;0.40;0.37;;;15.50;99.90;;;;;;4995232;28;20459;-80
2021/08/06 00:18:09;;;;;;;0.33;0.33;;;15.50;99.90;;;;;;4994868;28;20445;-81
2021/08/06 00:20:36;;;;;;;0.30;0.30;;;15.50;99.90;;;;;;4995075;28;20468;-81
2021/08/06 00:23:04;;;;;;;0.30;0.30;;;15.50;99.90;;;;;;4995250;28;20801;-82
2021/08/06 00:25:31;;;;;;;0.60;0.30;;;15.50;99.90;;;;;;4995369;28;20801;-82
2021/08/06 00:27:59;;;;;;;0.40;0.30;;;15.50;99.90;;;;;;4995051;28;20472;-82
2021/08/06 00:30:26;;;;;;;1.90;0.40;;;15.40;99.90;;;;;;4994958;28;20522;-83
2021/08/06 00:32:53;;;;;;;0.30;0.27;;;15.40;99.90;;;;;;4994839;28;20437;-82
2021/08/06 00:35:20;;;;;;;0.47;0.40;;;15.40;99.90;;;;;;4994453;28;20463;-81
2021/08/06 00:37:47;;;;;;;0.40;0.40;;;15.40;99.90;;;;;;4994631;28;20455;-81
2021/08/06 00:40:14;;;;;;;0.40;0.40;;;15.40;99.90;;;;;;4994715;28;20463;-80
2021/08/06 00:42:41;;;;;;;0.40;0.40;;;15.40;99.90;;;;;;4994766;28;20452;-81
2021/08/06 00:45:10;;;;;;;0.30;0.30;;;15.40;99.90;;;;;;4994379;28;20452;-81
2021/08/06 00:47:37;;;;;;;0.50;0.43;;;15.30;99.90;;;;;;4994693;28;20479;-81
2021/08/06 00:50:06;;;;;;;0.30;0.30;;;15.30;99.90;;;;;;4994453;28;20452;-81
2021/08/06 00:52:32;;;;;;;0.37;0.30;;;15.30;99.90;;;;;;4994418;28;20433;-80
2021/08/06 00:54:59;;;;;;;0.50;0.30;;;15.30;99.90;;;;;;4994483;28;20455;-81
2021/08/06 00:57:26;;;;;;;0.40;0.40;;;15.30;99.90;;;;;;4994174;28;20550;-80
2021/08/06 00:59:53;;;;;;;0.73;0.50;;;15.30;99.90;;;;;;4994935;28;20452;-80
2021/08/06 01:02:23;;;;;;;0.40;0.40;;;15.20;99.90;;;;;;4994108;28;21002;-81
2021/08/06 01:04:57;;;;;;;0.40;0.33;;;15.20;99.90;;;;;;4994448;28;20436;-81
2021/08/06 01:07:30;;;;;;;0.50;0.40;;;15.20;99.90;;;;;;4994280;28;20497;-81
2021/08/06 01:10:00;;;;;;;0.50;0.37;;;15.20;99.90;;;;;;4994477;28;20469;-81
2021/08/06 01:12:32;;;;;;;0.70;0.60;;;15.20;99.90;;;;;;4994301;28;20475;-81
2021/08/06 01:15:01;;;;;;;0.60;0.40;;;15.20;99.90;;;;;;4994768;28;20439;-80
2021/08/06 01:17:32;;;;;;;0.37;0.30;;;15.20;99.90;;;;;;4993939;28;20444;-81
2021/08/06 01:20:06;;;;;;;0.93;0.50;;;15.10;99.90;;;;;;4994327;28;20417;-80
2021/08/06 01:22:41;;;;;;;0.30;0.30;;;15.20;99.90;;;;;;4994202;28;20432;-80
2021/08/06 01:25:13;;;;;;;0.30;0.30;;;15.20;99.90;;;;;;4994130;28;20437;-80
2021/08/06 01:27:43;;;;;;;0.50;0.43;;;15.20;99.90;;;;;;4994070;28;20485;-80
2021/08/06 01:30:12;;;;;;;0.30;0.30;;;15.20;99.90;;;;;;4994029;28;20440;-80
2021/08/06 01:32:39;;;;;;;0.50;0.40;;;15.20;99.90;;;;;;4994053;28;20448;-80
2021/08/06 01:35:09;;;;;;;0.40;0.40;;;15.20;99.90;;;;;;4994071;28;20456;-80
2021/08/06 01:37:36;;;;;;;0.63;0.47;;;15.20;99.90;;;;;;4993982;28;20440;-79
2021/08/06 01:40:06;;;;;;;0.40;0.30;;;15.10;99.90;;;;;;4993941;28;20461;-80
2021/08/06 01:42:39;;;;;;;0.40;0.37;;;15.10;99.90;;;;;;4993978;28;20516;-81
2021/08/06 01:45:12;;;;;;;0.40;0.30;;;15.10;99.90;;;;;;4993939;28;20413;-81
2021/08/06 01:47:42;;;;;;;0.50;0.40;;;15.10;99.90;;;;;;4997036;28;20468;-84
2021/08/06 01:50:13;;;;;;;0.40;0.30;;;15.10;99.90;;;;;;4998480;28;20432;-84
2021/08/06 01:52:48;;;;;;;0.30;0.30;;;15.10;99.90;;;;;;4998435;28;20444;-80
2021/08/06 01:55:17;;;;;;;0.40;0.40;;;15.10;99.90;;;;;;4998481;28;20432;-80
2021/08/06 01:57:46;;;;;;;0.50;0.43;;;15.20;99.90;;;;;;4998277;28;20484;-84
2021/08/06 02:00:15;;;;;;;0.30;0.30;;;15.20;99.90;;;;;;4998463;28;20990;-85
2021/08/06 02:02:42;;;;;;;0.33;0.30;;;15.20;99.90;;;;;;4997699;28;20459;-79
2021/08/06 02:05:11;;;;;;;0.50;0.50;;;15.30;99.90;;;;;;4997639;28;20448;-79
2021/08/06 02:07:38;;;;;;;0.40;0.30;;;15.30;99.90;;;;;;4997578;28;20523;-79
2021/08/06 02:10:05;;;;;;;0.40;0.37;;;15.30;99.90;;;;;;4997131;28;20948;-80
2021/08/06 02:12:33;;;;;;;0.40;0.33;;;15.30;99.90;;;;;;4997391;28;20807;-79
2021/08/06 02:15:00;;;;;;;0.30;0.30;;;15.30;99.90;;;;;;4997765;28;20448;-84
2021/08/06 02:17:29;;;;;;;0.30;0.30;;;15.40;99.90;;;;;;4997501;28;20440;-82
2021/08/06 02:19:57;;;;;;;0.30;0.30;;;15.40;99.90;;;;;;4997505;28;20443;-82
2021/08/06 02:22:24;;;;;;;0.30;0.30;;;15.40;99.90;;;;;;4996979;28;20457;-80
2021/08/06 02:24:52;;;;;;;0.63;0.63;;;15.40;99.90;;;;;;4997012;28;20820;-80
2021/08/06 02:27:22;;;;;;;0.40;0.40;;;15.40;99.90;;;;;;4997134;28;20846;-81
2021/08/06 02:29:53;;;;;;;0.30;0.30;;;15.40;99.90;;;;;;4997245;28;20939;-83
2021/08/06 02:32:20;;;;;;;0.50;0.40;;;15.50;99.90;;;;;;4997197;28;20471;-84
2021/08/06 02:34:48;;;;;;;1.27;0.50;;;15.50;99.90;;;;;;4997562;28;20932;-85
2021/08/06 02:37:15;;;;;;;0.40;0.30;;;15.50;99.90;;;;;;4997414;28;20460;-81
2021/08/06 02:39:42;;;;;;;0.50;0.50;;;15.50;99.90;;;;;;4997034;28;20455;-81
2021/08/06 02:42:09;;;;;;;0.47;0.40;;;15.50;99.90;;;;;;4997159;28;20471;-81
2021/08/06 02:44:36;;;;;;;0.40;0.40;;;15.50;99.90;;;;;;4996969;28;20444;-82
2021/08/06 02:47:03;;;;;;;0.40;0.40;;;15.50;99.90;;;;;;4996781;28;20571;-80
2021/08/06 02:49:31;;;;;;;0.97;0.50;;;15.50;99.90;;;;;;4996787;28;20822;-79
2021/08/06 02:52:00;;;;;;;1.03;0.40;;;15.40;99.90;;;;;;4996799;28;20487;-81
2021/08/06 02:54:26;;;;;;;0.50;0.30;;;15.40;99.90;;;;;;4996521;28;20435;-81
2021/08/06 02:56:53;;;;;;;0.50;0.40;;;15.40;99.90;;;;;;4996049;28;20464;-80
2021/08/06 02:59:20;;;;;;;0.50;0.40;;;15.40;99.90;;;;;;4996457;28;20970;-80
2021/08/06 03:01:47;;;;;;;0.50;0.30;;;15.40;99.90;;;;;;4996702;28;20467;-82
2021/08/06 03:04:13;;;;;;;0.80;0.30;;;15.40;99.90;;;;;;4996551;28;20452;-82
2021/08/06 03:06:40;;;;;;;0.40;0.30;;;15.40;99.90;;;;;;4996386;28;20964;-85
2021/08/06 03:09:08;;;;;;;0.50;0.40;;;15.40;99.90;;;;;;4996706;28;20484;-82
2021/08/06 03:11:35;;;;;;;0.40;0.30;;;15.30;99.90;;;;;;4996390;28;20479;-80
2021/08/06 03:14:02;;;;;;;0.57;0.40;;;15.30;99.90;;;;;;4996394;28;20453;-81
2021/08/06 03:16:28;;;;;;;0.30;0.30;;;15.30;99.90;;;;;;4996461;28;20452;-85
2021/08/06 03:18:55;;;;;;;0.30;0.30;;;15.30;99.90;;;;;;4996858;28;20447;-85
2021/08/06 03:21:22;;;;;;;0.50;0.40;;;15.30;99.90;;;;;;4996060;28;20983;-79
2021/08/06 03:23:49;;;;;;;0.30;0.30;;;15.30;99.90;;;;;;4996987;28;20884;-85
2021/08/06 03:26:17;;;;;;;0.40;0.40;;;15.20;99.90;;;;;;4997243;28;20452;-85
2021/08/06 03:28:43;;;;;;;0.43;0.33;;;15.20;99.90;;;;;;4996098;28;20484;-81
2021/08/06 03:31:10;;;;;;;0.30;0.30;;;15.20;99.90;;;;;;4995646;28;20976;-81
2021/08/06 03:33:37;;;;;;;0.43;0.40;;;15.10;99.90;;;;;;4996096;28;20441;-81
2021/08/06 03:36:04;;;;;;;0.40;0.40;;;15.10;99.90;;;;;;4996121;28;20456;-81
2021/08/06 03:38:31;;;;;;;0.40;0.40;;;15.10;99.90;;;;;;4996147;28;20511;-81
2021/08/06 03:40:58;;;;;;;0.70;0.67;;;15.10;99.90;;;;;;4996006;28;20472;-81
2021/08/06 03:43:26;;;;;;;0.60;0.30;;;15.00;99.90;;;;;;4995669;28;20444;-82
2021/08/06 03:45:52;;;;;;;0.87;0.50;;;15.00;99.90;;;;;;4995648;28;20437;-81
2021/08/06 03:48:19;;;;;;;0.63;0.53;;;15.00;99.90;;;;;;4995954;28;20488;-81
2021/08/06 03:50:46;;;;;;;0.40;0.40;;;14.90;99.90;;;;;;4995821;28;20960;-80
2021/08/06 03:53:13;;;;;;;0.40;0.33;;;15.00;99.90;;;;;;4995863;28;20812;-82
2021/08/06 03:55:39;;;;;;;0.60;0.60;;;15.00;99.90;;;;;;4995424;28;20936;-83
2021/08/06 03:58:07;;;;;;;1.77;0.43;;;14.90;99.90;;;;;;4996491;28;20441;-85
2021/08/06 04:00:38;;;;;;;0.43;0.40;;;14.80;99.90;;;;;;4995749;28;20468;-81
2021/08/06 04:03:05;;;;;;;0.40;0.40;;;14.70;99.90;;;;;;4996229;28;20436;-85
2021/08/06 04:05:32;;;;;;;0.40;0.40;;;14.70;99.90;;;;;;4996075;28;20460;-84
2021/08/06 04:07:59;;;;;;;0.40;0.40;;;14.60;99.90;;;;;;4995732;28;20839;-83
2021/08/06 04:10:26;;;;;;;0.40;0.40;;;14.60;99.90;;;;;;4995114;28;20455;-81
2021/08/06 04:12:52;;;;;;;0.50;0.40;;;14.60;99.90;;;;;;4995346;28;20459;-82
2021/08/06 04:15:19;;;;;;;0.30;0.30;;;14.60;99.90;;;;;;4994926;28;20929;-81
2021/08/06 04:17:47;;;;;;;0.47;0.47;;;14.60;99.90;;;;;;4994875;28;20459;-81
2021/08/06 04:20:15;;;;;;;0.53;0.40;;;14.50;99.90;;;;;;4995272;28;20444;-83
2021/08/06 04:22:42;;;;;;;0.37;0.30;;;14.60;99.90;;;;;;4995487;28;20796;-83
2021/08/06 04:25:10;;;;;;;0.80;0.40;;;14.60;99.90;;;;;;4995479;28;20475;-83
2021/08/06 04:27:37;;;;;;;0.50;0.30;;;14.60;99.90;;;;;;4995232;28;20959;-81
2021/08/06 04:30:04;;;;;;;0.30;0.30;;;14.60;99.90;;;;;;4994732;28;20449;-81
2021/08/06 04:32:31;;;;;;;1.03;0.83;;;14.70;99.90;;;;;;4995191;28;20464;-84
2021/08/06 04:34:59;;;;;;;0.30;0.30;;;14.70;99.90;;;;;;4995441;28;20437;-85
2021/08/06 04:37:26;;;;;;;0.43;0.43;;;14.70;99.90;;;;;;4995171;28;20444;-84
2021/08/06 04:39:53;;;;;;;0.80;0.40;;;14.70;99.90;;;;;;4995312;28;20441;-84
2021/08/06 04:42:19;;;;;;;0.40;0.33;;;14.70;99.90;;;;;;4995287;28;20480;-84
2021/08/06 04:44:46;;;;;;;0.70;0.70;;;14.70;99.90;;;;;;4994913;28;20456;-80
2021/08/06 04:47:13;;;;;;;1.43;0.70;;;14.70;99.90;;;;;;4994985;28;20445;-84
2021/08/06 04:49:40;;;;;;;0.40;0.40;;;14.70;99.90;;;;;;4995225;28;20492;-78
2021/08/06 04:52:08;;;;;;;0.40;0.40;;;14.70;99.90;;;;;;4994516;28;20472;-78
2021/08/06 04:54:35;;;;;;;0.97;0.40;;;14.70;99.90;;;;;;4994342;28;20455;-80
2021/08/06 04:57:01;;;;;;;0.30;0.30;;;14.70;99.90;;;;;;4994130;28;20480;-81
2021/08/06 04:59:28;;;;;;;0.50;0.43;;;14.70;99.90;;;;;;4994598;28;20943;-81
2021/08/06 05:01:55;;;;;;;0.40;0.30;;;14.60;99.90;;;;;;4994048;28;21010;-78
2021/08/06 05:04:22;;;;;;;1.03;0.70;;;14.60;99.90;;;;;;4994409;28;20444;-81
2021/08/06 05:06:48;;;;;;;0.30;0.30;;;14.50;99.90;;;;;;4994172;28;20810;-81
2021/08/06 05:09:16;;;;;;;0.60;0.53;;;14.50;99.90;;;;;;4994247;28;20491;-80
2021/08/06 05:11:43;;;;;;;0.30;0.30;;;14.50;99.90;;;;;;4994240;28;20469;-81
2021/08/06 05:14:10;;;;;;;0.77;0.50;;;14.50;99.90;;;;;;4994314;28;20444;-82
2021/08/06 05:16:36;;;;;;;0.40;0.40;;;14.50;99.90;;;;;;4994293;28;20459;-81
2021/08/06 05:19:03;;;;;;;0.30;0.30;;;14.50;99.90;;;;;;4994187;28;20454;-81
2021/08/06 05:21:30;;;;;;;0.30;0.30;;;14.50;99.90;;;;;;4994921;28;20479;-89
2021/08/06 05:23:57;;;;;;;0.37;0.37;;;14.50;99.90;;;;;;4995535;28;20963;-88
2021/08/06 05:26:25;;;;;;;0.30;0.30;;;14.50;99.90;;;;;;4995149;28;20457;-80
2021/08/06 05:28:51;;;;;;;0.80;0.70;;;14.50;99.90;;;;;;4994070;28;20491;-79
2021/08/06 05:31:19;;;;;;;0.97;0.37;;;14.50;99.90;;;;;;4994307;28;20475;-86
2021/08/06 05:33:46;;;;;;;0.30;0.30;;;14.50;99.90;;;;;;4995000;28;20463;-86
2021/08/06 05:36:13;;;;;;;0.37;0.30;;;14.50;99.90;;;;;;4994318;28;20445;-81
2021/08/06 05:38:39;;;;;;;0.70;0.30;;;14.50;99.90;;;;;;4993760;28;20440;-80
2021/08/06 05:41:06;;;;;;;0.60;0.50;;;14.50;99.90;;;;;;4993946;28;20472;-81
2021/08/06 05:43:34;;;;;;;0.90;0.57;;;14.50;99.90;;;;;;4994025;28;20452;-81
2021/08/06 05:46:01;;;;;;;0.57;0.30;;;14.50;99.90;;;;;;4994057;28;20464;-80
2021/08/06 05:48:28;;;;;;;1.53;0.80;;;14.50;99.90;;;;;;4993483;28;20508;-79
2021/08/06 05:50:54;;;;;;;0.40;0.40;;;14.50;99.90;;;;;;4993892;28;21003;-82
2021/08/06 05:53:22;;;;;;;0.57;0.37;;;14.60;99.90;;;;;;4994359;28;20457;-83
2021/08/06 05:55:49;;;;;;;2.07;0.63;;;14.60;99.90;;;;;;4994042;28;20484;-83
2021/08/06 05:58:15;;;;;;;0.40;0.40;;;14.60;99.90;;;;;;4994093;28;20416;-80
2021/08/06 06:00:44;;;;;;;0.40;0.37;;;14.70;99.90;;;;;;4993453;28;20469;-81
2021/08/06 06:03:10;;;;;;;0.30;0.30;;;14.70;99.90;;;;;;4993841;28;20456;-81
2021/08/06 06:05:37;;;;;;;0.70;0.50;;;14.70;99.90;;;;;;4993803;28;20968;-82
2021/08/06 06:08:04;;;;;;;0.40;0.30;;;14.70;99.90;;;;;;4993570;28;20444;-81
2021/08/06 06:10:31;;;;;;;0.40;0.40;;;14.70;99.90;;;;;;4993358;28;20488;-80
2021/08/06 06:12:58;;;;;;;0.40;0.40;;;14.70;99.90;;;;;;4993738;28;20459;-81
2021/08/06 06:15:25;;;;;;;0.40;0.40;;;14.70;99.90;;;;;;4993375;28;20492;-80
2021/08/06 06:17:53;;;;;;;0.90;0.50;;;14.70;99.90;;;;;;4993635;28;20451;-80
2021/08/06 06:20:21;;;;;;;0.40;0.40;;;14.70;99.90;;;;;;4993306;28;20456;-80
2021/08/06 06:22:47;;;;;;;0.40;0.40;;;14.70;99.90;;;;;;4993359;28;20463;-80
2021/08/06 06:25:15;;;;;;;0.90;0.50;;;14.70;99.90;;;;;;4994323;28;20448;-82
2021/08/06 06:27:50;;;;;;;1.33;0.50;;;14.80;99.90;;;;;;4993597;28;20456;-81
2021/08/06 06:30:17;;;;;;;0.30;0.30;;;14.90;99.90;;;;;;4993316;28;21024;-80
2021/08/06 06:32:44;;;;;;;0.47;0.30;;;15.10;99.90;;;;;;4995834;28;20456;-86
2021/08/06 06:35:12;;;;;;;1.27;0.50;;;15.20;99.90;;;;;;4997468;28;20448;-81
2021/08/06 06:37:38;;;;;;;0.47;0.33;;;15.30;99.90;;;;;;4997471;28;20448;-86
2021/08/06 06:40:06;;;;;;;0.40;0.40;;;15.50;99.90;;;;;;4997694;28;20476;-81
2021/08/06 06:42:33;;;;;;;0.40;0.40;;;15.60;99.90;;;;;;4997391;28;20436;-87
2021/08/06 06:45:00;;;;;;;0.30;0.30;;;15.70;99.90;;;;;;4997872;28;20448;-87
2021/08/06 06:47:27;;;;;;;0.40;0.30;;;15.80;99.90;;;;;;4997867;28;20444;-87
2021/08/06 06:49:53;;;;;;;0.80;0.40;;;16.00;99.90;;;;;;4998121;28;20472;-87
2021/08/06 06:52:21;;;;;;;0.60;0.50;;;16.10;99.90;;;;;;4997706;28;20956;-87
2021/08/06 06:54:48;;;;;;;0.40;0.40;;;16.30;99.90;;;;;;4997832;28;20456;-81
2021/08/06 06:57:15;;;;;;;0.83;0.50;;;16.40;99.90;;;;;;4996323;28;20495;-81
2021/08/06 06:59:42;;;;;;;0.47;0.43;;;16.40;99.90;;;;;;4997202;28;20444;-81
2021/08/06 07:02:09;;;;;;;0.40;0.40;;;16.40;99.90;;;;;;4997616;28;20476;-82
2021/08/06 07:04:37;;;;;;;0.50;0.30;;;16.30;99.90;;;;;;4996729;28;20432;-81
2021/08/06 07:07:04;;;;;;;0.30;0.30;;;16.40;99.90;;;;;;4996548;28;20429;-81
2021/08/06 07:09:33;;;;;;;0.30;0.30;;;16.40;99.90;;;;;;4996516;28;20834;-81
2021/08/06 07:12:00;;;;;;;0.67;0.30;;;16.40;99.90;;;;;;4997663;28;20478;-88
2021/08/06 07:14:27;;;;;;;0.50;0.40;;;16.40;99.90;;;;;;4997918;28;20433;-87
2021/08/06 07:16:54;;;;;;;0.40;0.40;;;16.50;99.90;;;;;;4997233;28;20464;-82
2021/08/06 07:19:20;;;;;;;1.07;0.50;;;16.50;99.90;;;;;;4996589;28;20448;-88
2021/08/06 07:21:48;;;;;;;2.10;0.60;;;16.70;99.90;;;;;;4996660;28;20475;-83
2021/08/06 07:24:15;;;;;;;0.43;0.43;;;16.80;99.90;;;;;;4996728;28;20785;-81
2021/08/06 07:26:43;;;;;;;1.20;0.47;;;16.80;99.90;;;;;;4996249;28;20452;-81
2021/08/06 07:29:10;;;;;;;0.87;0.40;;;16.80;99.90;;;;;;4995840;28;20477;-81
2021/08/06 07:31:37;;;;;;;0.67;0.40;;;16.90;99.90;;;;;;4995938;28;21042;-82
2021/08/06 07:34:03;;;;;;;0.40;0.40;;;16.90;99.90;;;;;;4995780;28;20971;-81
2021/08/06 07:36:30;;;;;;;0.73;0.50;;;17.00;99.90;;;;;;4996118;28;20452;-85
2021/08/06 07:38:57;;;;;;;0.30;0.30;;;17.00;99.90;;;;;;4999626;28;20447;-86
2021/08/06 07:41:24;;;;;;;0.40;0.40;;;16.90;99.90;;;;;;4998186;28;20453;-84
2021/08/06 07:43:52;;;;;;;0.30;0.30;;;16.80;99.90;;;;;;4995603;28;20457;-86
2021/08/06 07:46:19;;;;;;;0.60;0.50;;;16.70;99.90;;;;;;4996796;28;20456;-86
2021/08/06 07:48:46;;;;;;;0.37;0.33;;;16.70;99.90;;;;;;4996519;28;20437;-87
2021/08/06 07:51:13;;;;;;;0.30;0.30;;;16.70;99.90;;;;;;4996532;28;20484;-87
2021/08/06 07:53:39;;;;;;;0.30;0.30;;;16.90;99.90;;;;;;4996841;28;20448;-88
2021/08/06 07:56:06;;;;;;;0.30;0.30;;;17.00;99.90;;;;;;4988755;28;20484;-84
2021/08/06 07:58:33;;;;;;;0.40;0.33;;;17.10;99.90;;;;;;4995801;28;20433;-83
2021/08/06 08:01:01;;;;;;;0.60;0.40;;;17.20;99.90;;;;;;4995885;28;21002;-84
2021/08/06 08:03:28;;;;;;;0.30;0.30;;;17.30;99.90;;;;;;4995823;28;20908;-84
2021/08/06 08:05:54;;;;;;;0.50;0.30;;;17.40;99.90;;;;;;4995810;28;20460;-84
2021/08/06 08:08:21;;;;;;;0.60;0.40;;;17.70;99.90;;;;;;4995476;28;20439;-83
2021/08/06 08:10:48;;;;;;;0.60;0.30;;;17.90;99.90;;;;;;4995455;28;20492;-83
2021/08/06 08:13:15;;;;;;;0.30;0.30;;;18.20;99.90;;;;;;4995575;28;20448;-83
2021/08/06 08:15:42;;;;;;;0.30;0.27;;;18.30;99.90;;;;;;4995675;28;20452;-83
2021/08/06 08:18:10;;;;;;;0.30;0.30;;;18.40;99.90;;;;;;4995324;28;20443;-83
2021/08/06 08:20:37;;;;;;;0.30;0.30;;;18.40;99.90;;;;;;4995477;28;20460;-83
2021/08/06 08:23:04;;;;;;;0.50;0.50;;;18.40;99.90;;;;;;4995107;28;20460;-83
2021/08/06 08:25:31;;;;;;;0.40;0.30;;;18.40;99.90;;;;;;4995131;28;20420;-83
2021/08/06 08:27:57;;;;;;;0.30;0.30;;;18.40;99.90;;;;;;4995098;28;20417;-82
2021/08/06 08:30:24;;;;;;;0.30;0.30;;;18.40;99.90;;;;;;4995874;28;20480;-82
2021/08/06 08:32:51;;;;;;;0.40;0.40;;;18.50;99.90;;;;;;4995163;28;20436;-82
2021/08/06 08:35:19;;;;;;;0.40;0.30;;;18.70;99.90;;;;;;4995235;28;20413;-82
2021/08/06 08:37:46;;;;;;;0.30;0.27;;;18.80;99.90;;;;;;4995118;28;20444;-82
2021/08/06 08:40:13;;;;;;;0.40;0.30;;;18.90;99.90;;;;;;4994607;28;20917;-82
2021/08/06 08:42:39;;;;;;;0.30;0.30;;;19.10;99.90;;;;;;4995726;28;20443;-81
2021/08/06 08:45:07;;;;;;;0.30;0.30;;;19.30;99.90;;;;;;4994680;28;20440;-79
2021/08/06 08:47:36;;;;;;;0.50;0.30;;;19.30;99.90;;;;;;4994469;28;20420;-81
2021/08/06 08:50:05;;;;;;;0.33;0.33;;;19.50;99.90;;;;;;4994609;28;20795;-82
2021/08/06 08:52:33;;;;;;;0.40;0.37;;;19.70;99.90;;;;;;4994177;28;20474;-82
2021/08/06 08:55:01;;;;;;;0.40;0.40;;;19.80;99.90;;;;;;4994276;28;20436;-83
2021/08/06 08:57:28;;;;;;;0.40;0.40;;;20.00;99.90;;;;;;4994173;28;20475;-82
2021/08/06 08:59:55;;;;;;;0.30;0.30;;;20.00;99.90;;;;;;4994585;28;20432;-80
2021/08/06 09:02:24;;;;;;;0.50;0.30;;;20.00;99.90;;;;;;4994549;28;20519;-82
2021/08/06 09:05:08;;;;;;;0.30;0.30;;;19.80;99.90;;;;;;4994548;28;20527;-80
2021/08/06 09:07:36;;;;;;;0.40;0.30;;;19.90;99.90;;;;;;4994288;28;20527;-79
2021/08/06 09:10:09;;;;;;;0.77;0.40;;;19.90;99.90;;;;;;4994280;28;20510;-82
2021/08/06 09:12:53;;;;;;;0.80;0.30;;;20.00;99.90;;;;;;4994581;28;20448;-84
2021/08/06 09:15:41;;;;;;;0.47;0.40;;;20.20;99.90;;;;;;4995313;28;20467;-86
2021/08/06 09:18:30;;;;;;;0.40;0.30;;;20.50;99.90;;;;;;4995056;28;20436;-82
2021/08/06 09:21:00;;;;;;;1.10;0.40;;;20.50;99.90;;;;;;4994338;28;20809;-81
2021/08/06 09:23:47;;;;;;;0.40;0.30;;;20.40;99.90;;;;;;4994479;28;20447;-83
2021/08/06 09:26:37;;;;;;;0.40;0.40;;;20.00;99.90;;;;;;4987632;28;20432;-82
2021/08/06 09:29:06;;;;;;;0.40;0.33;;;19.80;99.90;;;;;;4995073;28;20468;-86
2021/08/06 09:31:34;;;;;;;0.93;0.60;;;19.60;99.90;;;;;;4994463;28;20504;-81
2021/08/06 09:34:29;;;;;;;0.30;0.30;;;19.50;99.90;;;;;;4993853;28;20463;-82
2021/08/06 09:37:07;;;;;;;0.40;0.30;;;19.70;99.90;;;;;;4949432;28;20491;-82
2021/08/06 09:39:39;;;;;;;0.30;0.30;;;20.00;99.90;;;;;;4994283;28;20841;-81
2021/08/06 09:42:14;;;;;;;0.50;0.40;;;20.30;99.90;;;;;;4993956;28;20551;-80
2021/08/06 09:44:41;;;;;;;0.50;0.40;;;20.30;99.90;;;;;;4994142;28;20463;-81
2021/08/06 09:47:17;;;;;;;0.40;0.40;;;20.30;99.90;;;;;;4993874;28;20940;-83
2021/08/06 09:49:45;;;;;;;0.40;0.40;;;20.40;99.90;;;;;;4994146;28;20482;-82
2021/08/06 09:52:13;;;;;;;0.87;0.40;;;20.50;99.90;;;;;;4993947;28;20464;-82
2021/08/06 09:54:47;;;;;;;0.50;0.43;;;20.50;99.90;;;;;;4993957;28;20455;-81
2021/08/06 09:57:14;;;;;;;0.40;0.30;;;20.50;99.90;;;;;;4993874;28;20478;-82
2021/08/06 09:59:41;;;;;;;0.60;0.47;;;20.50;99.90;;;;;;4994189;28;20439;-82
2021/08/06 10:02:13;;;;;;;0.40;0.40;;;20.50;99.90;;;;;;4994161;28;20471;-83
2021/08/06 10:04:41;;;;;;;0.50;0.30;;;20.50;99.90;;;;;;4994228;28;20451;-83
2021/08/06 10:07:08;;;;;;;0.40;0.40;;;20.40;99.90;;;;;;4994713;28;20448;-83
2021/08/06 10:09:35;;;;;;;0.97;0.40;;;20.30;99.90;;;;;;4997941;28;20456;-83
2021/08/06 10:12:05;;;;;;;0.50;0.50;;;20.20;99.90;;;;;;4997839;28;20467;-84
2021/08/06 10:14:33;;;;;;;2.00;0.50;;;20.10;99.90;;;;;;4998462;28;20951;-84
2021/08/06 10:17:00;;;;;;;0.37;0.33;;;20.00;99.90;;;;;;4997525;28;20526;-81
2021/08/06 10:19:28;;;;;;;0.40;0.30;;;19.90;99.90;;;;;;4997813;28;20440;-83
2021/08/06 10:21:55;;;;;;;0.40;0.40;;;19.80;99.90;;;;;;4997936;28;20464;-84
2021/08/06 10:24:22;;;;;;;0.40;0.30;;;19.80;99.90;;;;;;4997895;28;20480;-83
2021/08/06 10:26:50;;;;;;;0.30;0.30;;;19.70;99.90;;;;;;4997799;28;20448;-83
2021/08/06 10:29:21;;;;;;;0.30;0.30;;;19.50;99.90;;;;;;4997656;28;20770;-83
2021/08/06 10:32:13;;;;;;;0.30;0.30;;;19.30;99.90;;;;;;4997567;28;20487;-81
2021/08/06 10:35:17;;;;;;;0.40;0.30;;;19.10;99.90;;;;;;4997242;28;20428;-81
2021/08/06 10:38:05;;;;;;;0.63;0.33;;;19.00;99.90;;;;;;4997266;28;20805;-81
2021/08/06 10:41:05;;;;;;;0.30;0.30;;;18.90;99.90;;;;;;4997458;28;20461;-83
2021/08/06 10:43:44;;;;;;;0.70;0.50;;;19.00;99.90;;;;;;4997031;28;20444;-82
2021/08/06 10:46:13;;;;;;;0.40;0.30;;;19.00;99.90;;;;;;4997194;28;20908;-82
2021/08/06 10:48:42;;;;;;;0.40;0.40;;;19.00;99.90;;;;;;4997186;28;20437;-82
2021/08/06 10:51:33;;;;;;;0.30;0.30;;;19.00;99.90;;;;;;4997035;28;20487;-83
2021/08/06 10:54:27;;;;;;;0.53;0.50;;;19.10;99.90;;;;;;4977447;28;20449;-81
2021/08/06 10:57:17;;;;;;;0.50;0.33;;;19.20;99.90;;;;;;4996526;28;20483;-79
2021/08/06 10:59:45;;;;;;;0.30;0.30;;;19.30;99.90;;;;;;4996940;28;20905;-84
2021/08/06 11:02:48;;;;;;;0.50;0.30;;;19.30;99.90;;;;;;4997806;28;20464;-85
2021/08/06 11:05:38;;;;;;;0.97;0.40;;;19.40;99.90;;;;;;4997417;28;20922;-80
2021/08/06 11:08:53;;;;;;;0.30;0.30;;;19.70;99.90;;;;;;4988577;28;20433;-80
2021/08/06 11:11:42;;;;;;;0.30;0.30;;;19.90;99.90;;;;;;4990471;28;20491;-81
2021/08/06 11:14:09;;;;;;;0.40;0.30;;;20.10;99.90;;;;;;4986747;28;20998;-85
2021/08/06 11:16:35;;;;;;;0.30;0.30;;;20.20;99.90;;;;;;4997402;28;20432;-85
2021/08/06 11:19:04;;;;;;;0.40;0.33;;;20.30;99.90;;;;;;4997234;28;20436;-85
2021/08/06 11:21:39;;;;;;;1.53;0.30;;;20.40;99.90;;;;;;4997176;28;20468;-86
2021/08/06 11:24:06;;;;;;;0.30;0.30;;;20.50;99.90;;;;;;4997270;28;20500;-83
2021/08/06 11:26:34;;;;;;;0.53;0.50;;;20.70;99.90;;;;;;4996797;28;20437;-83
2021/08/06 11:29:13;;;;;;;0.30;0.30;;;20.90;99.90;;;;;;4996738;28;20439;-82
2021/08/06 11:31:39;;;;;;;1.73;0.50;;;21.00;99.90;;;;;;4996498;28;20542;-83
2021/08/06 11:34:08;;;;;;;0.60;0.40;;;21.10;99.90;;;;;;4988491;28;20432;-81
2021/08/06 11:36:35;;;;;;;0.83;0.40;;;21.10;99.90;;;;;;4996082;28;20448;-81
2021/08/06 11:39:11;;;;;;;0.40;0.30;;;21.20;99.90;;;;;;4995738;28;20432;-81
2021/08/06 11:41:47;;;;;;;0.80;0.40;;;21.50;99.90;;;;;;4995931;28;20464;-80
2021/08/06 11:44:14;;;;;;;0.67;0.33;;;21.60;99.90;;;;;;4996081;28;20438;-79
2021/08/06 11:46:45;;;;;;;0.33;0.33;;;21.40;99.90;;;;;;4995837;28;20458;-80
2021/08/06 11:49:14;;;;;;;0.40;0.33;;;21.20;99.90;;;;;;4995993;28;20413;-87
2021/08/06 11:51:52;;;;;;;0.60;0.50;;;21.00;99.90;;;;;;4996432;28;20494;-87
2021/08/06 11:54:19;;;;;;;0.40;0.33;;;20.80;99.90;;;;;;4996786;28;20439;-87
2021/08/06 11:56:57;;;;;;;1.30;0.57;;;20.70;99.90;;;;;;4995768;28;21021;-82
2021/08/06 11:59:24;;;;;;;0.40;0.30;;;20.60;99.90;;;;;;4996070;28;20432;-82
2021/08/06 12:01:51;;;;;;;0.40;0.40;;;20.60;99.90;;;;;;4995675;28;20466;-81
2021/08/06 12:04:28;;;;;;;0.40;0.40;;;20.50;99.90;;;;;;4995870;28;20460;-82
2021/08/06 12:06:55;;;;;;;2.20;0.60;;;20.60;99.90;;;;;;5000474;28;20432;-87
2021/08/06 12:09:22;;;;;;;0.30;0.30;;;20.70;99.90;;;;;;4996590;28;20451;-86
2021/08/06 12:11:48;;;;;;;0.40;0.40;;;20.90;99.90;;;;;;4995708;28;20495;-80
2021/08/06 12:14:27;;;;;;;0.40;0.30;;;21.10;99.90;;;;;;4995684;28;20901;-82
2021/08/06 12:16:54;;;;;;;0.40;0.40;;;21.10;99.90;;;;;;4995648;28;20490;-82
2021/08/06 12:19:21;;;;;;;0.87;0.37;;;21.30;99.90;;;;;;4995279;28;20451;-80
2021/08/06 12:21:49;;;;;;;0.30;0.30;;;21.40;99.90;;;;;;4995380;28;20464;-82
2021/08/06 12:24:18;;;;;;;0.40;0.40;;;21.40;99.90;;;;;;4995539;28;20439;-83
2021/08/06 12:26:47;;;;;;;0.40;0.40;;;21.60;99.90;;;;;;4995453;28;20531;-83
2021/08/06 12:29:23;;;;;;;0.30;0.20;;;21.70;99.90;;;;;;4995167;28;20416;-82
2021/08/06 12:31:57;;;;;;;0.40;0.30;;;21.60;99.90;;;;;;4994709;28;20991;-83
2021/08/06 12:34:38;;;;;;;0.50;0.40;;;21.60;99.90;;;;;;4995661;28;20436;-82
2021/08/06 12:37:09;;;;;;;0.37;0.37;;;21.60;99.90;;;;;;4995171;28;20425;-82
2021/08/06 12:39:54;;;;;;;0.67;0.30;;;21.50;99.90;;;;;;4995313;28;20446;-83
2021/08/06 12:42:35;;;;;;;0.40;0.30;;;21.50;99.90;;;;;;4995209;28;20467;-82
2021/08/06 12:45:04;;;;;;;0.60;0.40;;;21.40;99.90;;;;;;4995639;28;20471;-83
2021/08/06 12:47:46;;;;;;;0.40;0.30;;;21.50;99.90;;;;;;4995004;28;20789;-82
2021/08/06 12:50:15;;;;;;;0.40;0.40;;;21.50;99.90;;;;;;4994849;28;20436;-81
2021/08/06 12:52:45;;;;;;;0.30;0.30;;;21.40;99.90;;;;;;4995003;28;20432;-82
2021/08/06 12:55:14;;;;;;;0.30;0.30;;;21.30;99.90;;;;;;4994722;28;20458;-82
2021/08/06 12:57:49;;;;;;;0.70;0.40;;;21.30;99.90;;;;;;4994300;28;21006;-82
2021/08/06 13:00:25;;;;;;;0.40;0.30;;;21.30;99.90;;;;;;4994532;28;20974;-82